sensor_id;sensor_type;location;lat;lon;timestamp;P1;durP1;ratioP1;P2;durP2;ratioP2
59006;SDS011;44792;52.760;6.726;2023-07-31T00:02:23;5.57;;;2.38;;
59006;SDS011;44792;52.760;6.726;2023-07-31T00:04:49;3.08;;;1.80;;
59006;SDS011;44792;52.760;6.726;2023-07-31T00:07:14;3.47;;;1.95;;
59006;SDS011;44792;52.760;6.726;2023-07-31T00:09:40;4.22;;;1.70;;
59006;SDS011;44792;52.760;6.726;2023-07-31T00:12:06;3.45;;;2.10;;
59006;SDS011;44792;52.760;6.726;2023-07-31T00:14:32;3.55;;;1.88;;
59006;SDS011;44792;52.760;6.726;2023-07-31T00:16:57;7.57;;;2.47;;
59006;SDS011;44792;52.760;6.726;2023-07-31T00:19:23;3.35;;;1.77;;
59006;SDS011;44792;52.760;6.726;2023-07-31T00:21:49;2.97;;;1.98;;
59006;SDS011;44792;52.760;6.726;2023-07-31T00:24:14;2.35;;;1.73;;
59006;SDS011;44792;52.760;6.726;2023-07-31T00:26:40;2.25;;;1.83;;
59006;SDS011;44792;52.760;6.726;2023-07-31T00:29:06;4.28;;;2.05;;
59006;SDS011;44792;52.760;6.726;2023-07-31T00:31:31;3.53;;;1.63;;
59006;SDS011;44792;52.760;6.726;2023-07-31T00:33:57;2.42;;;1.60;;
59006;SDS011;44792;52.760;6.726;2023-07-31T00:36:23;2.25;;;1.75;;
59006;SDS011;44792;52.760;6.726;2023-07-31T00:38:48;3.88;;;1.80;;
59006;SDS011;44792;52.760;6.726;2023-07-31T00:41:14;2.90;;;1.70;;
59006;SDS011;44792;52.760;6.726;2023-07-31T00:43:40;2.65;;;1.75;;
59006;SDS011;44792;52.760;6.726;2023-07-31T00:46:06;1.85;;;1.30;;
59006;SDS011;44792;52.760;6.726;2023-07-31T00:48:32;3.75;;;2.20;;
59006;SDS011;44792;52.760;6.726;2023-07-31T00:50:59;4.25;;;1.88;;
59006;SDS011;44792;52.760;6.726;2023-07-31T00:53:26;2.60;;;1.98;;
59006;SDS011;44792;52.760;6.726;2023-07-31T00:55:53;2.35;;;1.60;;
59006;SDS011;44792;52.760;6.726;2023-07-31T00:58:19;1.95;;;1.58;;
59006;SDS011;44792;52.760;6.726;2023-07-31T01:00:44;2.47;;;1.90;;
59006;SDS011;44792;52.760;6.726;2023-07-31T01:03:10;2.78;;;1.88;;
59006;SDS011;44792;52.760;6.726;2023-07-31T01:08:18;3.40;;;1.67;;
59006;SDS011;44792;52.760;6.726;2023-07-31T01:10:56;1.92;;;1.60;;
59006;SDS011;44792;52.760;6.726;2023-07-31T01:13:39;2.53;;;1.77;;
59006;SDS011;44792;52.760;6.726;2023-07-31T01:16:05;2.67;;;1.20;;
59006;SDS011;44792;52.760;6.726;2023-07-31T01:18:31;1.70;;;1.50;;
59006;SDS011;44792;52.760;6.726;2023-07-31T01:21:01;5.28;;;1.70;;
59006;SDS011;44792;52.760;6.726;2023-07-31T01:26:24;5.78;;;1.67;;
59006;SDS011;44792;52.760;6.726;2023-07-31T01:31:38;2.90;;;1.38;;
59006;SDS011;44792;52.760;6.726;2023-07-31T01:34:06;1.35;;;1.20;;
59006;SDS011;44792;52.760;6.726;2023-07-31T01:36:35;1.25;;;1.10;;
59006;SDS011;44792;52.760;6.726;2023-07-31T01:39:01;1.27;;;1.10;;
59006;SDS011;44792;52.760;6.726;2023-07-31T01:41:27;1.60;;;1.10;;
59006;SDS011;44792;52.760;6.726;2023-07-31T01:43:53;2.50;;;1.38;;
59006;SDS011;44792;52.760;6.726;2023-07-31T01:46:19;1.40;;;1.17;;
59006;SDS011;44792;52.760;6.726;2023-07-31T01:48:44;1.10;;;1.00;;
59006;SDS011;44792;52.760;6.726;2023-07-31T01:51:10;2.05;;;1.30;;
59006;SDS011;44792;52.760;6.726;2023-07-31T01:53:36;1.23;;;0.90;;
59006;SDS011;44792;52.760;6.726;2023-07-31T01:56:01;1.85;;;1.00;;
59006;SDS011;44792;52.760;6.726;2023-07-31T01:58:27;1.58;;;1.00;;
59006;SDS011;44792;52.760;6.726;2023-07-31T02:00:53;1.48;;;0.98;;
59006;SDS011;44792;52.760;6.726;2023-07-31T02:03:19;1.20;;;0.82;;
59006;SDS011;44792;52.760;6.726;2023-07-31T02:05:45;1.73;;;0.88;;
59006;SDS011;44792;52.760;6.726;2023-07-31T02:08:14;1.45;;;1.08;;
59006;SDS011;44792;52.760;6.726;2023-07-31T02:10:40;1.67;;;1.15;;
59006;SDS011;44792;52.760;6.726;2023-07-31T02:13:06;1.20;;;0.90;;
59006;SDS011;44792;52.760;6.726;2023-07-31T02:15:32;0.98;;;0.93;;
59006;SDS011;44792;52.760;6.726;2023-07-31T02:17:58;1.90;;;1.10;;
59006;SDS011;44792;52.760;6.726;2023-07-31T02:20:24;1.58;;;1.00;;
59006;SDS011;44792;52.760;6.726;2023-07-31T02:22:50;1.10;;;0.98;;
59006;SDS011;44792;52.760;6.726;2023-07-31T02:25:15;1.08;;;0.98;;
59006;SDS011;44792;52.760;6.726;2023-07-31T02:27:41;1.10;;;0.90;;
59006;SDS011;44792;52.760;6.726;2023-07-31T02:30:07;2.20;;;0.82;;
59006;SDS011;44792;52.760;6.726;2023-07-31T02:32:33;1.67;;;0.98;;
59006;SDS011;44792;52.760;6.726;2023-07-31T02:34:58;0.88;;;0.88;;
59006;SDS011;44792;52.760;6.726;2023-07-31T02:37:24;1.52;;;0.80;;
59006;SDS011;44792;52.760;6.726;2023-07-31T02:39:50;1.88;;;0.90;;
59006;SDS011;44792;52.760;6.726;2023-07-31T02:42:16;1.73;;;1.20;;
59006;SDS011;44792;52.760;6.726;2023-07-31T02:44:42;1.05;;;0.80;;
59006;SDS011;44792;52.760;6.726;2023-07-31T02:47:07;1.27;;;1.17;;
59006;SDS011;44792;52.760;6.726;2023-07-31T02:49:34;1.17;;;1.00;;
59006;SDS011;44792;52.760;6.726;2023-07-31T02:51:59;1.63;;;1.25;;
59006;SDS011;44792;52.760;6.726;2023-07-31T02:54:25;1.42;;;1.20;;
59006;SDS011;44792;52.760;6.726;2023-07-31T02:56:51;3.55;;;1.20;;
59006;SDS011;44792;52.760;6.726;2023-07-31T02:59:16;1.48;;;1.20;;
59006;SDS011;44792;52.760;6.726;2023-07-31T03:01:43;1.80;;;1.20;;
59006;SDS011;44792;52.760;6.726;2023-07-31T03:04:08;1.10;;;1.00;;
59006;SDS011;44792;52.760;6.726;2023-07-31T03:06:34;2.25;;;1.15;;
59006;SDS011;44792;52.760;6.726;2023-07-31T03:09:00;2.70;;;1.20;;
59006;SDS011;44792;52.760;6.726;2023-07-31T03:11:25;1.58;;;1.20;;
59006;SDS011;44792;52.760;6.726;2023-07-31T03:13:51;2.00;;;1.30;;
59006;SDS011;44792;52.760;6.726;2023-07-31T03:16:17;1.40;;;1.30;;
59006;SDS011;44792;52.760;6.726;2023-07-31T03:18:43;1.80;;;1.00;;
59006;SDS011;44792;52.760;6.726;2023-07-31T03:21:08;1.95;;;1.70;;
59006;SDS011;44792;52.760;6.726;2023-07-31T03:23:34;1.50;;;1.23;;
59006;SDS011;44792;52.760;6.726;2023-07-31T03:26:01;2.90;;;1.30;;
59006;SDS011;44792;52.760;6.726;2023-07-31T03:28:30;1.67;;;1.10;;
59006;SDS011;44792;52.760;6.726;2023-07-31T03:30:56;2.10;;;1.15;;
59006;SDS011;44792;52.760;6.726;2023-07-31T03:33:22;2.00;;;1.10;;
59006;SDS011;44792;52.760;6.726;2023-07-31T03:35:47;0.88;;;0.88;;
59006;SDS011;44792;52.760;6.726;2023-07-31T03:38:13;2.20;;;1.17;;
59006;SDS011;44792;52.760;6.726;2023-07-31T03:40:39;1.48;;;1.00;;
59006;SDS011;44792;52.760;6.726;2023-07-31T03:43:05;1.63;;;1.10;;
59006;SDS011;44792;52.760;6.726;2023-07-31T03:45:31;2.65;;;1.20;;
59006;SDS011;44792;52.760;6.726;2023-07-31T03:47:56;1.10;;;0.90;;
59006;SDS011;44792;52.760;6.726;2023-07-31T03:50:22;1.40;;;1.10;;
59006;SDS011;44792;52.760;6.726;2023-07-31T03:52:50;1.77;;;1.00;;
59006;SDS011;44792;52.760;6.726;2023-07-31T03:55:15;5.53;;;1.33;;
59006;SDS011;44792;52.760;6.726;2023-07-31T03:57:41;1.20;;;1.00;;
59006;SDS011;44792;52.760;6.726;2023-07-31T04:00:07;2.45;;;1.08;;
59006;SDS011;44792;52.760;6.726;2023-07-31T04:02:33;2.25;;;1.20;;
59006;SDS011;44792;52.760;6.726;2023-07-31T04:04:59;1.83;;;1.17;;
59006;SDS011;44792;52.760;6.726;2023-07-31T04:07:24;1.73;;;1.13;;
59006;SDS011;44792;52.760;6.726;2023-07-31T04:09:50;1.70;;;0.90;;
59006;SDS011;44792;52.760;6.726;2023-07-31T04:12:15;1.80;;;1.20;;
59006;SDS011;44792;52.760;6.726;2023-07-31T04:14:41;1.77;;;0.88;;
59006;SDS011;44792;52.760;6.726;2023-07-31T04:17:07;1.10;;;0.93;;
59006;SDS011;44792;52.760;6.726;2023-07-31T04:19:32;1.13;;;1.00;;
59006;SDS011;44792;52.760;6.726;2023-07-31T04:21:58;2.05;;;1.15;;
59006;SDS011;44792;52.760;6.726;2023-07-31T04:24:24;2.17;;;1.20;;
59006;SDS011;44792;52.760;6.726;2023-07-31T04:26:50;1.17;;;0.80;;
59006;SDS011;44792;52.760;6.726;2023-07-31T04:29:16;2.08;;;1.20;;
59006;SDS011;44792;52.760;6.726;2023-07-31T04:31:42;1.48;;;1.17;;
59006;SDS011;44792;52.760;6.726;2023-07-31T04:34:08;1.23;;;0.80;;
59006;SDS011;44792;52.760;6.726;2023-07-31T04:36:34;1.08;;;0.98;;
59006;SDS011;44792;52.760;6.726;2023-07-31T04:39:00;1.63;;;1.20;;
59006;SDS011;44792;52.760;6.726;2023-07-31T04:41:26;1.95;;;1.33;;
59006;SDS011;44792;52.760;6.726;2023-07-31T04:43:51;4.03;;;1.10;;
59006;SDS011;44792;52.760;6.726;2023-07-31T04:46:17;2.63;;;1.17;;
59006;SDS011;44792;52.760;6.726;2023-07-31T04:48:43;3.00;;;1.58;;
59006;SDS011;44792;52.760;6.726;2023-07-31T04:51:09;3.42;;;1.65;;
59006;SDS011;44792;52.760;6.726;2023-07-31T04:53:35;3.17;;;1.80;;
59006;SDS011;44792;52.760;6.726;2023-07-31T04:56:01;5.22;;;1.88;;
59006;SDS011;44792;52.760;6.726;2023-07-31T04:58:27;7.82;;;2.85;;
59006;SDS011;44792;52.760;6.726;2023-07-31T05:00:52;7.78;;;3.50;;
59006;SDS011;44792;52.760;6.726;2023-07-31T05:03:18;8.88;;;3.78;;
59006;SDS011;44792;52.760;6.726;2023-07-31T05:05:44;10.30;;;4.03;;
59006;SDS011;44792;52.760;6.726;2023-07-31T05:08:09;8.60;;;3.88;;
59006;SDS011;44792;52.760;6.726;2023-07-31T05:10:35;13.75;;;4.43;;
59006;SDS011;44792;52.760;6.726;2023-07-31T05:13:01;10.38;;;4.45;;
59006;SDS011;44792;52.760;6.726;2023-07-31T05:15:27;13.93;;;4.65;;
59006;SDS011;44792;52.760;6.726;2023-07-31T05:17:53;14.90;;;4.70;;
59006;SDS011;44792;52.760;6.726;2023-07-31T05:20:19;14.02;;;5.35;;
59006;SDS011;44792;52.760;6.726;2023-07-31T05:22:44;23.75;;;5.63;;
59006;SDS011;44792;52.760;6.726;2023-07-31T05:25:10;15.15;;;5.50;;
59006;SDS011;44792;52.760;6.726;2023-07-31T05:27:36;14.50;;;4.88;;
59006;SDS011;44792;52.760;6.726;2023-07-31T05:30:03;15.23;;;4.80;;
59006;SDS011;44792;52.760;6.726;2023-07-31T05:32:29;16.30;;;5.05;;
59006;SDS011;44792;52.760;6.726;2023-07-31T05:34:55;19.10;;;5.57;;
59006;SDS011;44792;52.760;6.726;2023-07-31T05:37:21;17.25;;;5.93;;
59006;SDS011;44792;52.760;6.726;2023-07-31T05:39:47;19.75;;;6.35;;
59006;SDS011;44792;52.760;6.726;2023-07-31T05:42:12;22.00;;;7.45;;
59006;SDS011;44792;52.760;6.726;2023-07-31T05:44:38;20.83;;;6.53;;
59006;SDS011;44792;52.760;6.726;2023-07-31T05:47:04;26.25;;;6.32;;
59006;SDS011;44792;52.760;6.726;2023-07-31T05:49:30;23.08;;;6.35;;
59006;SDS011;44792;52.760;6.726;2023-07-31T05:51:55;20.67;;;6.15;;
59006;SDS011;44792;52.760;6.726;2023-07-31T05:54:21;20.25;;;6.38;;
59006;SDS011;44792;52.760;6.726;2023-07-31T05:56:47;26.83;;;7.20;;
59006;SDS011;44792;52.760;6.726;2023-07-31T05:59:12;15.82;;;5.97;;
59006;SDS011;44792;52.760;6.726;2023-07-31T06:01:38;24.23;;;7.15;;
59006;SDS011;44792;52.760;6.726;2023-07-31T06:04:04;25.60;;;7.25;;
59006;SDS011;44792;52.760;6.726;2023-07-31T06:06:30;27.00;;;7.22;;
59006;SDS011;44792;52.760;6.726;2023-07-31T06:08:56;17.70;;;6.65;;
59006;SDS011;44792;52.760;6.726;2023-07-31T06:11:22;21.17;;;7.13;;
59006;SDS011;44792;52.760;6.726;2023-07-31T06:13:48;24.10;;;6.78;;
59006;SDS011;44792;52.760;6.726;2023-07-31T06:16:14;25.08;;;7.03;;
59006;SDS011;44792;52.760;6.726;2023-07-31T06:18:40;19.38;;;7.18;;
59006;SDS011;44792;52.760;6.726;2023-07-31T06:21:07;18.95;;;7.13;;
59006;SDS011;44792;52.760;6.726;2023-07-31T06:23:33;20.88;;;6.60;;
59006;SDS011;44792;52.760;6.726;2023-07-31T06:25:59;22.08;;;7.20;;
59006;SDS011;44792;52.760;6.726;2023-07-31T06:28:28;22.67;;;7.55;;
59006;SDS011;44792;52.760;6.726;2023-07-31T06:30:54;23.50;;;8.02;;
59006;SDS011;44792;52.760;6.726;2023-07-31T06:33:20;26.67;;;8.07;;
59006;SDS011;44792;52.760;6.726;2023-07-31T06:35:46;22.70;;;7.88;;
59006;SDS011;44792;52.760;6.726;2023-07-31T06:38:12;22.10;;;7.88;;
59006;SDS011;44792;52.760;6.726;2023-07-31T06:40:37;30.05;;;8.07;;
59006;SDS011;44792;52.760;6.726;2023-07-31T06:43:03;19.75;;;7.20;;
59006;SDS011;44792;52.760;6.726;2023-07-31T06:45:36;18.35;;;7.35;;
59006;SDS011;44792;52.760;6.726;2023-07-31T06:48:03;20.00;;;7.63;;
59006;SDS011;44792;52.760;6.726;2023-07-31T06:50:29;18.55;;;7.60;;
59006;SDS011;44792;52.760;6.726;2023-07-31T06:52:55;21.90;;;7.88;;
59006;SDS011;44792;52.760;6.726;2023-07-31T06:55:21;20.70;;;7.05;;
59006;SDS011;44792;52.760;6.726;2023-07-31T06:57:48;23.80;;;7.43;;
59006;SDS011;44792;52.760;6.726;2023-07-31T07:00:15;23.30;;;7.57;;
59006;SDS011;44792;52.760;6.726;2023-07-31T07:02:41;17.98;;;7.32;;
59006;SDS011;44792;52.760;6.726;2023-07-31T07:05:07;20.88;;;6.50;;
59006;SDS011;44792;52.760;6.726;2023-07-31T07:07:33;13.88;;;6.05;;
59006;SDS011;44792;52.760;6.726;2023-07-31T07:09:59;14.88;;;6.35;;
59006;SDS011;44792;52.760;6.726;2023-07-31T07:12:26;17.58;;;6.60;;
59006;SDS011;44792;52.760;6.726;2023-07-31T07:14:54;13.82;;;5.60;;
59006;SDS011;44792;52.760;6.726;2023-07-31T07:17:20;13.60;;;5.13;;
59006;SDS011;44792;52.760;6.726;2023-07-31T07:19:45;12.18;;;5.00;;
59006;SDS011;44792;52.760;6.726;2023-07-31T07:22:13;15.00;;;5.95;;
59006;SDS011;44792;52.760;6.726;2023-07-31T07:24:39;11.07;;;4.43;;
59006;SDS011;44792;52.760;6.726;2023-07-31T07:27:05;12.70;;;5.05;;
59006;SDS011;44792;52.760;6.726;2023-07-31T07:29:31;10.00;;;4.22;;
59006;SDS011;44792;52.760;6.726;2023-07-31T07:31:57;12.50;;;5.53;;
59006;SDS011;44792;52.760;6.726;2023-07-31T07:34:23;11.70;;;4.97;;
59006;SDS011;44792;52.760;6.726;2023-07-31T07:36:51;12.10;;;5.25;;
59006;SDS011;44792;52.760;6.726;2023-07-31T07:39:16;12.57;;;4.65;;
59006;SDS011;44792;52.760;6.726;2023-07-31T07:41:42;11.50;;;4.10;;
59006;SDS011;44792;52.760;6.726;2023-07-31T07:44:08;10.02;;;4.63;;
59006;SDS011;44792;52.760;6.726;2023-07-31T07:46:34;11.05;;;3.90;;
59006;SDS011;44792;52.760;6.726;2023-07-31T07:48:59;10.70;;;4.25;;
59006;SDS011;44792;52.760;6.726;2023-07-31T07:51:25;7.63;;;3.90;;
59006;SDS011;44792;52.760;6.726;2023-07-31T07:53:51;8.88;;;3.97;;
59006;SDS011;44792;52.760;6.726;2023-07-31T07:56:16;8.35;;;4.53;;
59006;SDS011;44792;52.760;6.726;2023-07-31T07:58:42;7.57;;;3.75;;
59006;SDS011;44792;52.760;6.726;2023-07-31T08:01:08;10.05;;;4.28;;
59006;SDS011;44792;52.760;6.726;2023-07-31T08:03:34;9.15;;;4.28;;
59006;SDS011;44792;52.760;6.726;2023-07-31T08:06:00;11.27;;;4.18;;
59006;SDS011;44792;52.760;6.726;2023-07-31T08:08:28;7.57;;;3.85;;
59006;SDS011;44792;52.760;6.726;2023-07-31T08:10:54;9.05;;;3.90;;
59006;SDS011;44792;52.760;6.726;2023-07-31T08:13:19;7.25;;;3.92;;
59006;SDS011;44792;52.760;6.726;2023-07-31T08:15:45;6.93;;;3.90;;
59006;SDS011;44792;52.760;6.726;2023-07-31T08:18:11;6.57;;;3.72;;
59006;SDS011;44792;52.760;6.726;2023-07-31T08:20:37;7.22;;;3.75;;
59006;SDS011;44792;52.760;6.726;2023-07-31T08:23:03;7.63;;;3.70;;
59006;SDS011;44792;52.760;6.726;2023-07-31T08:25:29;7.05;;;3.47;;
59006;SDS011;44792;52.760;6.726;2023-07-31T08:27:55;6.18;;;3.40;;
59006;SDS011;44792;52.760;6.726;2023-07-31T08:30:21;5.53;;;3.00;;
59006;SDS011;44792;52.760;6.726;2023-07-31T08:32:47;4.68;;;3.25;;
59006;SDS011;44792;52.760;6.726;2023-07-31T08:35:12;6.95;;;3.33;;
59006;SDS011;44792;52.760;6.726;2023-07-31T08:37:38;5.03;;;3.28;;
59006;SDS011;44792;52.760;6.726;2023-07-31T08:40:05;5.95;;;3.08;;
59006;SDS011;44792;52.760;6.726;2023-07-31T08:42:31;5.00;;;2.80;;
59006;SDS011;44792;52.760;6.726;2023-07-31T08:44:57;3.47;;;2.53;;
59006;SDS011;44792;52.760;6.726;2023-07-31T08:47:25;6.53;;;2.78;;
59006;SDS011;44792;52.760;6.726;2023-07-31T08:49:52;9.25;;;3.38;;
59006;SDS011;44792;52.760;6.726;2023-07-31T08:52:19;3.80;;;2.67;;
59006;SDS011;44792;52.760;6.726;2023-07-31T08:54:45;4.90;;;2.60;;
59006;SDS011;44792;52.760;6.726;2023-07-31T08:57:11;4.45;;;2.38;;
59006;SDS011;44792;52.760;6.726;2023-07-31T08:59:37;4.30;;;2.35;;
59006;SDS011;44792;52.760;6.726;2023-07-31T09:02:07;3.25;;;2.10;;
59006;SDS011;44792;52.760;6.726;2023-07-31T09:04:34;4.45;;;2.42;;
59006;SDS011;44792;52.760;6.726;2023-07-31T09:07:00;3.55;;;2.00;;
59006;SDS011;44792;52.760;6.726;2023-07-31T09:09:29;4.60;;;2.00;;
59006;SDS011;44792;52.760;6.726;2023-07-31T09:11:57;2.70;;;2.10;;
59006;SDS011;44792;52.760;6.726;2023-07-31T09:14:25;2.45;;;1.98;;
59006;SDS011;44792;52.760;6.726;2023-07-31T09:17:00;3.40;;;2.03;;
59006;SDS011;44792;52.760;6.726;2023-07-31T09:19:26;2.22;;;1.55;;
59006;SDS011;44792;52.760;6.726;2023-07-31T09:21:52;3.25;;;2.03;;
59006;SDS011;44792;52.760;6.726;2023-07-31T09:24:28;2.63;;;1.70;;
59006;SDS011;44792;52.760;6.726;2023-07-31T09:26:55;1.95;;;1.45;;
59006;SDS011;44792;52.760;6.726;2023-07-31T09:29:22;3.30;;;1.70;;
59006;SDS011;44792;52.760;6.726;2023-07-31T09:31:48;3.17;;;1.52;;
59006;SDS011;44792;52.760;6.726;2023-07-31T09:34:14;2.78;;;1.52;;
59006;SDS011;44792;52.760;6.726;2023-07-31T09:36:40;4.07;;;1.67;;
59006;SDS011;44792;52.760;6.726;2023-07-31T09:39:10;1.77;;;1.08;;
59006;SDS011;44792;52.760;6.726;2023-07-31T09:41:38;4.25;;;1.50;;
59006;SDS011;44792;52.760;6.726;2023-07-31T09:44:05;2.17;;;1.30;;
59006;SDS011;44792;52.760;6.726;2023-07-31T09:46:30;1.50;;;1.30;;
59006;SDS011;44792;52.760;6.726;2023-07-31T09:49:14;1.85;;;1.30;;
59006;SDS011;44792;52.760;6.726;2023-07-31T09:51:41;3.13;;;1.50;;
59006;SDS011;44792;52.760;6.726;2023-07-31T09:54:14;1.52;;;1.08;;
59006;SDS011;44792;52.760;6.726;2023-07-31T09:56:48;1.98;;;0.93;;
59006;SDS011;44792;52.760;6.726;2023-07-31T09:59:15;1.20;;;1.10;;
59006;SDS011;44792;52.760;6.726;2023-07-31T10:01:42;1.38;;;1.10;;
59006;SDS011;44792;52.760;6.726;2023-07-31T10:04:10;1.20;;;1.00;;
59006;SDS011;44792;52.760;6.726;2023-07-31T10:06:37;1.40;;;1.30;;
59006;SDS011;44792;52.760;6.726;2023-07-31T10:09:08;1.42;;;1.33;;
59006;SDS011;44792;52.760;6.726;2023-07-31T10:11:43;1.70;;;1.05;;
59006;SDS011;44792;52.760;6.726;2023-07-31T10:14:20;1.67;;;1.48;;
59006;SDS011;44792;52.760;6.726;2023-07-31T10:16:48;2.45;;;1.35;;
59006;SDS011;44792;52.760;6.726;2023-07-31T10:19:15;2.80;;;1.50;;
59006;SDS011;44792;52.760;6.726;2023-07-31T10:21:42;1.40;;;1.30;;
59006;SDS011;44792;52.760;6.726;2023-07-31T10:24:09;2.00;;;1.80;;
59006;SDS011;44792;52.760;6.726;2023-07-31T10:26:34;1.80;;;1.70;;
59006;SDS011;44792;52.760;6.726;2023-07-31T10:29:03;3.20;;;2.35;;
59006;SDS011;44792;52.760;6.726;2023-07-31T10:31:30;3.10;;;1.80;;
59006;SDS011;44792;52.760;6.726;2023-07-31T10:33:57;2.53;;;2.17;;
59006;SDS011;44792;52.760;6.726;2023-07-31T10:36:28;2.73;;;2.30;;
59006;SDS011;44792;52.760;6.726;2023-07-31T10:38:55;2.35;;;2.15;;
59006;SDS011;44792;52.760;6.726;2023-07-31T10:41:30;2.28;;;1.75;;
59006;SDS011;44792;52.760;6.726;2023-07-31T10:43:59;1.90;;;1.80;;
59006;SDS011;44792;52.760;6.726;2023-07-31T10:46:27;2.45;;;2.10;;
59006;SDS011;44792;52.760;6.726;2023-07-31T10:49:01;2.22;;;2.03;;
59006;SDS011;44792;52.760;6.726;2023-07-31T10:51:34;2.25;;;2.05;;
59006;SDS011;44792;52.760;6.726;2023-07-31T10:54:13;3.63;;;1.95;;
59006;SDS011;44792;52.760;6.726;2023-07-31T10:56:46;1.60;;;1.50;;
59006;SDS011;44792;52.760;6.726;2023-07-31T10:59:15;1.85;;;1.73;;
59006;SDS011;44792;52.760;6.726;2023-07-31T11:01:55;2.00;;;1.83;;
59006;SDS011;44792;52.760;6.726;2023-07-31T11:04:27;2.22;;;2.03;;
59006;SDS011;44792;52.760;6.726;2023-07-31T11:06:59;2.20;;;2.00;;
59006;SDS011;44792;52.760;6.726;2023-07-31T11:09:30;2.63;;;2.08;;
59006;SDS011;44792;52.760;6.726;2023-07-31T11:11:57;1.80;;;1.70;;
59006;SDS011;44792;52.760;6.726;2023-07-31T11:14:23;2.50;;;2.30;;
59006;SDS011;44792;52.760;6.726;2023-07-31T11:16:50;3.80;;;2.08;;
59006;SDS011;44792;52.760;6.726;2023-07-31T11:19:23;2.42;;;2.22;;
59006;SDS011;44792;52.760;6.726;2023-07-31T11:21:49;3.17;;;2.40;;
59006;SDS011;44792;52.760;6.726;2023-07-31T11:24:15;2.40;;;2.20;;
59006;SDS011;44792;52.760;6.726;2023-07-31T11:26:49;3.15;;;2.53;;
59006;SDS011;44792;52.760;6.726;2023-07-31T11:29:15;3.65;;;1.70;;
59006;SDS011;44792;52.760;6.726;2023-07-31T11:31:42;2.83;;;2.42;;
59006;SDS011;44792;52.760;6.726;2023-07-31T11:34:08;2.30;;;2.03;;
59006;SDS011;44792;52.760;6.726;2023-07-31T11:36:34;1.88;;;1.75;;
59006;SDS011;44792;52.760;6.726;2023-07-31T11:39:06;2.15;;;1.90;;
59006;SDS011;44792;52.760;6.726;2023-07-31T11:41:33;1.60;;;1.50;;
59006;SDS011;44792;52.760;6.726;2023-07-31T11:43:59;1.98;;;1.63;;
59006;SDS011;44792;52.760;6.726;2023-07-31T11:46:25;1.98;;;1.83;;
59006;SDS011;44792;52.760;6.726;2023-07-31T11:48:51;1.60;;;1.50;;
59006;SDS011;44792;52.760;6.726;2023-07-31T11:51:17;1.80;;;1.67;;
59006;SDS011;44792;52.760;6.726;2023-07-31T11:53:50;2.10;;;1.90;;
59006;SDS011;44792;52.760;6.726;2023-07-31T11:56:19;1.70;;;1.60;;
59006;SDS011;44792;52.760;6.726;2023-07-31T11:58:50;1.30;;;1.20;;
59006;SDS011;44792;52.760;6.726;2023-07-31T12:01:28;1.25;;;1.15;;
59006;SDS011;44792;52.760;6.726;2023-07-31T12:03:54;1.15;;;0.90;;
59006;SDS011;44792;52.760;6.726;2023-07-31T12:06:21;0.50;;;0.50;;
59006;SDS011;44792;52.760;6.726;2023-07-31T12:08:47;1.15;;;0.60;;
59006;SDS011;44792;52.760;6.726;2023-07-31T12:11:14;1.48;;;0.70;;
59006;SDS011;44792;52.760;6.726;2023-07-31T12:13:40;0.93;;;0.50;;
59006;SDS011;44792;52.760;6.726;2023-07-31T12:16:06;3.03;;;0.60;;
59006;SDS011;44792;52.760;6.726;2023-07-31T12:18:36;2.03;;;1.27;;
59006;SDS011;44792;52.760;6.726;2023-07-31T12:21:07;1.13;;;1.00;;
59006;SDS011;44792;52.760;6.726;2023-07-31T12:23:34;1.63;;;1.10;;
59006;SDS011;44792;52.760;6.726;2023-07-31T12:28:30;1.88;;;1.05;;
59006;SDS011;44792;52.760;6.726;2023-07-31T12:31:00;1.45;;;1.33;;
59006;SDS011;44792;52.760;6.726;2023-07-31T12:33:33;1.85;;;1.10;;
59006;SDS011;44792;52.760;6.726;2023-07-31T12:36:01;1.52;;;1.00;;
59006;SDS011;44792;52.760;6.726;2023-07-31T12:38:28;1.40;;;1.30;;
59006;SDS011;44792;52.760;6.726;2023-07-31T12:40:54;2.70;;;1.20;;
59006;SDS011;44792;52.760;6.726;2023-07-31T12:43:19;1.33;;;1.20;;
59006;SDS011;44792;52.760;6.726;2023-07-31T12:45:45;1.83;;;1.25;;
59006;SDS011;44792;52.760;6.726;2023-07-31T12:48:12;1.63;;;1.50;;
59006;SDS011;44792;52.760;6.726;2023-07-31T12:50:38;3.17;;;1.90;;
59006;SDS011;44792;52.760;6.726;2023-07-31T12:53:04;3.50;;;1.77;;
59006;SDS011;44792;52.760;6.726;2023-07-31T12:55:30;3.50;;;2.30;;
59006;SDS011;44792;52.760;6.726;2023-07-31T12:57:56;7.38;;;2.60;;
59006;SDS011;44792;52.760;6.726;2023-07-31T13:00:22;6.85;;;2.75;;
59006;SDS011;44792;52.760;6.726;2023-07-31T13:02:47;6.78;;;2.78;;
59006;SDS011;44792;52.760;6.726;2023-07-31T13:05:14;6.47;;;2.47;;
59006;SDS011;44792;52.760;6.726;2023-07-31T13:07:40;4.80;;;2.17;;
59006;SDS011;44792;52.760;6.726;2023-07-31T13:10:06;5.05;;;1.85;;
59006;SDS011;44792;52.760;6.726;2023-07-31T13:12:32;4.13;;;1.98;;
59006;SDS011;44792;52.760;6.726;2023-07-31T13:14:58;2.83;;;1.50;;
59006;SDS011;44792;52.760;6.726;2023-07-31T13:17:24;2.55;;;1.70;;
59006;SDS011;44792;52.760;6.726;2023-07-31T13:19:49;4.82;;;1.90;;
59006;SDS011;44792;52.760;6.726;2023-07-31T13:22:15;4.45;;;2.10;;
59006;SDS011;44792;52.760;6.726;2023-07-31T13:24:41;2.92;;;1.85;;
59006;SDS011;44792;52.760;6.726;2023-07-31T13:27:06;3.92;;;2.00;;
59006;SDS011;44792;52.760;6.726;2023-07-31T13:29:32;3.15;;;2.50;;
59006;SDS011;44792;52.760;6.726;2023-07-31T13:31:58;6.30;;;2.58;;
59006;SDS011;44792;52.760;6.726;2023-07-31T13:34:24;3.65;;;2.67;;
59006;SDS011;44792;52.760;6.726;2023-07-31T13:36:49;4.90;;;2.38;;
59006;SDS011;44792;52.760;6.726;2023-07-31T13:39:15;6.65;;;2.10;;
59006;SDS011;44792;52.760;6.726;2023-07-31T13:41:41;4.75;;;2.00;;
59006;SDS011;44792;52.760;6.726;2023-07-31T13:44:06;2.10;;;1.70;;
59006;SDS011;44792;52.760;6.726;2023-07-31T13:46:32;2.10;;;1.70;;
59006;SDS011;44792;52.760;6.726;2023-07-31T13:48:58;4.95;;;2.13;;
59006;SDS011;44792;52.760;6.726;2023-07-31T13:51:25;5.88;;;1.98;;
59006;SDS011;44792;52.760;6.726;2023-07-31T13:53:51;4.38;;;1.70;;
59006;SDS011;44792;52.760;6.726;2023-07-31T13:56:16;6.38;;;1.88;;
59006;SDS011;44792;52.760;6.726;2023-07-31T13:58:42;5.13;;;1.88;;
59006;SDS011;44792;52.760;6.726;2023-07-31T14:01:08;3.78;;;2.15;;
59006;SDS011;44792;52.760;6.726;2023-07-31T14:03:34;3.60;;;2.35;;
59006;SDS011;44792;52.760;6.726;2023-07-31T14:05:59;4.97;;;2.78;;
59006;SDS011;44792;52.760;6.726;2023-07-31T14:08:25;4.75;;;3.17;;
59006;SDS011;44792;52.760;6.726;2023-07-31T14:10:51;5.07;;;2.75;;
59006;SDS011;44792;52.760;6.726;2023-07-31T14:13:16;3.65;;;2.83;;
59006;SDS011;44792;52.760;6.726;2023-07-31T14:15:42;4.55;;;2.53;;
59006;SDS011;44792;52.760;6.726;2023-07-31T14:18:08;8.90;;;2.35;;
59006;SDS011;44792;52.760;6.726;2023-07-31T14:20:34;6.88;;;2.88;;
59006;SDS011;44792;52.760;6.726;2023-07-31T14:23:00;4.13;;;2.58;;
59006;SDS011;44792;52.760;6.726;2023-07-31T14:25:27;7.13;;;3.42;;
59006;SDS011;44792;52.760;6.726;2023-07-31T14:27:53;5.70;;;2.45;;
59006;SDS011;44792;52.760;6.726;2023-07-31T14:30:18;9.90;;;2.40;;
59006;SDS011;44792;52.760;6.726;2023-07-31T14:32:45;4.38;;;2.38;;
59006;SDS011;44792;52.760;6.726;2023-07-31T14:35:11;6.00;;;3.22;;
59006;SDS011;44792;52.760;6.726;2023-07-31T14:37:40;3.10;;;2.15;;
59006;SDS011;44792;52.760;6.726;2023-07-31T14:40:08;4.88;;;2.40;;
59006;SDS011;44792;52.760;6.726;2023-07-31T14:42:35;11.10;;;2.78;;
59006;SDS011;44792;52.760;6.726;2023-07-31T14:45:02;5.82;;;2.92;;
59006;SDS011;44792;52.760;6.726;2023-07-31T14:47:28;4.68;;;2.65;;
59006;SDS011;44792;52.760;6.726;2023-07-31T14:49:56;5.53;;;2.40;;
59006;SDS011;44792;52.760;6.726;2023-07-31T14:52:21;8.27;;;2.10;;
59006;SDS011;44792;52.760;6.726;2023-07-31T14:54:47;4.93;;;2.38;;